sensor_id;sensor_type;location;lat;lon;timestamp;pressure;altitude;pressure_sealevel;temperature;humidity
55763;BME280;42162;51.958;5.426;2024-03-23T00:53:54;101083.59;;;8.93;88.08
55763;BME280;42162;51.958;5.426;2024-03-23T00:56:20;101083.63;;;8.90;88.25
55763;BME280;42162;51.958;5.426;2024-03-23T00:58:46;101086.25;;;8.88;88.41
55763;BME280;42162;51.958;5.426;2024-03-23T01:01:11;101087.16;;;8.86;88.56
55763;BME280;42162;51.958;5.426;2024-03-23T01:03:38;101079.38;;;8.84;88.47
55763;BME280;42162;51.958;5.426;2024-03-23T01:06:04;101076.72;;;8.89;88.70
55763;BME280;42162;51.958;5.426;2024-03-23T01:08:30;101064.56;;;8.94;88.36
55763;BME280;42162;51.958;5.426;2024-03-23T01:11:00;101071.47;;;8.93;88.47
55763;BME280;42162;51.958;5.426;2024-03-23T01:13:27;101070.59;;;8.94;88.64
55763;BME280;42162;51.958;5.426;2024-03-23T01:15:54;101072.31;;;8.95;88.42
55763;BME280;42162;51.958;5.426;2024-03-23T01:18:21;101068.03;;;8.93;88.42
55763;BME280;42162;51.958;5.426;2024-03-23T01:20:47;101062.03;;;8.91;88.35
55763;BME280;42162;51.958;5.426;2024-03-23T01:23:13;101055.09;;;8.93;88.29
55763;BME280;42162;51.958;5.426;2024-03-23T01:25:40;101053.44;;;8.87;88.44
55763;BME280;42162;51.958;5.426;2024-03-23T01:28:06;101055.19;;;8.85;88.56
55763;BME280;42162;51.958;5.426;2024-03-23T01:30:35;101037.09;;;8.84;88.78
55763;BME280;42162;51.958;5.426;2024-03-23T01:33:01;101029.28;;;8.85;88.75
55763;BME280;42162;51.958;5.426;2024-03-23T01:35:28;101026.66;;;8.88;88.71
55763;BME280;42162;51.958;5.426;2024-03-23T01:37:54;101023.16;;;8.91;88.51
55763;BME280;42162;51.958;5.426;2024-03-23T01:40:20;101024.03;;;8.91;88.50
55763;BME280;42162;51.958;5.426;2024-03-23T01:42:57;101017.94;;;8.94;88.30
55763;BME280;42162;51.958;5.426;2024-03-23T01:45:23;101020.50;;;8.97;88.19
55763;BME280;42162;51.958;5.426;2024-03-23T01:47:51;101021.38;;;8.96;88.03
55763;BME280;42162;51.958;5.426;2024-03-23T01:50:18;101012.75;;;8.94;88.25
55763;BME280;42162;51.958;5.426;2024-03-23T01:52:44;101011.88;;;8.93;88.44
55763;BME280;42162;51.958;5.426;2024-03-23T01:55:10;101013.56;;;8.98;88.23
55763;BME280;42162;51.958;5.426;2024-03-23T01:57:37;101014.41;;;9.00;88.21
55763;BME280;42162;51.958;5.426;2024-03-23T02:00:03;101007.47;;;9.00;88.18
55763;BME280;42162;51.958;5.426;2024-03-23T02:02:47;101010.06;;;9.00;88.22
55763;BME280;42162;51.958;5.426;2024-03-23T02:05:13;101010.06;;;9.00;87.88
55763;BME280;42162;51.958;5.426;2024-03-23T02:07:40;101021.31;;;8.99;87.95
55763;BME280;42162;51.958;5.426;2024-03-23T02:10:07;101017.88;;;8.99;88.15
55763;BME280;42162;51.958;5.426;2024-03-23T02:12:34;101010.97;;;8.98;88.12
55763;BME280;42162;51.958;5.426;2024-03-23T02:15:00;101013.59;;;8.96;87.95
55763;BME280;42162;51.958;5.426;2024-03-23T02:17:27;101017.94;;;8.92;88.16
55763;BME280;42162;51.958;5.426;2024-03-23T02:19:53;101011.97;;;8.90;88.09
55763;BME280;42162;51.958;5.426;2024-03-23T02:22:19;100998.19;;;8.85;88.15
55763;BME280;42162;51.958;5.426;2024-03-23T02:24:45;101001.69;;;8.83;87.92
55763;BME280;42162;51.958;5.426;2024-03-23T02:27:12;101000.91;;;8.77;88.00
55763;BME280;42162;51.958;5.426;2024-03-23T02:29:38;100995.06;;;8.64;87.75
55763;BME280;42162;51.958;5.426;2024-03-23T02:32:04;100986.56;;;8.53;88.14
55763;BME280;42162;51.958;5.426;2024-03-23T02:34:30;100989.22;;;8.45;88.24
55763;BME280;42162;51.958;5.426;2024-03-23T02:36:56;100991.91;;;8.39;88.01
55763;BME280;42162;51.958;5.426;2024-03-23T02:39:22;100985.94;;;8.34;88.04
55763;BME280;42162;51.958;5.426;2024-03-23T02:41:48;100990.34;;;8.26;88.07
55763;BME280;42162;51.958;5.426;2024-03-23T02:44:14;100993.88;;;8.20;88.04
55763;BME280;42162;51.958;5.426;2024-03-23T02:46:40;100991.34;;;8.15;88.17
55763;BME280;42162;51.958;5.426;2024-03-23T02:49:06;101000.00;;;8.11;88.22
55763;BME280;42162;51.958;5.426;2024-03-23T02:51:32;100989.72;;;8.07;88.39
55763;BME280;42162;51.958;5.426;2024-03-23T02:53:58;100987.13;;;8.07;88.07
55763;BME280;42162;51.958;5.426;2024-03-23T02:56:24;100994.06;;;8.03;87.86
55763;BME280;42162;51.958;5.426;2024-03-23T02:58:50;100993.19;;;8.02;87.91
55763;BME280;42162;51.958;5.426;2024-03-23T03:01:16;100982.91;;;7.99;87.55
55763;BME280;42162;51.958;5.426;2024-03-23T03:03:42;100987.22;;;7.96;87.54
55763;BME280;42162;51.958;5.426;2024-03-23T03:06:09;100987.28;;;7.93;87.69
55763;BME280;42162;51.958;5.426;2024-03-23T03:08:35;100999.38;;;7.91;87.64
55763;BME280;42162;51.958;5.426;2024-03-23T03:11:03;100995.06;;;7.88;87.47
55763;BME280;42162;51.958;5.426;2024-03-23T03:13:29;100995.09;;;7.86;87.45
55763;BME280;42162;51.958;5.426;2024-03-23T03:15:55;101001.13;;;7.88;87.51
55763;BME280;42162;51.958;5.426;2024-03-23T03:18:21;100997.63;;;7.94;87.32
55763;BME280;42162;51.958;5.426;2024-03-23T03:20:47;101000.16;;;7.97;86.85
55763;BME280;42162;51.958;5.426;2024-03-23T03:23:13;100994.19;;;7.94;86.71
55763;BME280;42162;51.958;5.426;2024-03-23T03:25:38;100997.59;;;7.96;86.71
55763;BME280;42162;51.958;5.426;2024-03-23T03:28:04;100985.50;;;7.98;86.48
55763;BME280;42162;51.958;5.426;2024-03-23T03:30:30;100987.22;;;7.96;86.50
55763;BME280;42162;51.958;5.426;2024-03-23T03:32:56;100988.16;;;7.92;86.42
55763;BME280;42162;51.958;5.426;2024-03-23T03:35:22;100995.06;;;7.93;86.61
55763;BME280;42162;51.958;5.426;2024-03-23T03:37:48;100983.78;;;7.97;86.05
55763;BME280;42162;51.958;5.426;2024-03-23T03:40:14;100985.53;;;7.95;85.87
55763;BME280;42162;51.958;5.426;2024-03-23T03:42:41;100985.59;;;7.88;85.76
55763;BME280;42162;51.958;5.426;2024-03-23T03:45:07;100983.91;;;7.84;86.10
55763;BME280;42162;51.958;5.426;2024-03-23T03:47:33;100974.44;;;7.83;86.03
55763;BME280;42162;51.958;5.426;2024-03-23T03:49:59;100976.19;;;7.83;85.74
55763;BME280;42162;51.958;5.426;2024-03-23T03:52:26;100974.44;;;7.85;85.49
55763;BME280;42162;51.958;5.426;2024-03-23T03:55:00;100967.50;;;7.88;85.16
55763;BME280;42162;51.958;5.426;2024-03-23T03:57:28;100970.16;;;7.81;84.71
55763;BME280;42162;51.958;5.426;2024-03-23T03:59:54;100967.72;;;7.70;84.69
55763;BME280;42162;51.958;5.426;2024-03-23T04:02:20;100963.53;;;7.55;84.50
55763;BME280;42162;51.958;5.426;2024-03-23T04:04:46;100966.22;;;7.43;84.63
55763;BME280;42162;51.958;5.426;2024-03-23T04:07:12;100969.78;;;7.34;84.69
55763;BME280;42162;51.958;5.426;2024-03-23T04:09:38;100966.31;;;7.33;84.59
55763;BME280;42162;51.958;5.426;2024-03-23T04:12:04;100959.53;;;7.24;84.72
55763;BME280;42162;51.958;5.426;2024-03-23T04:14:30;100959.53;;;7.20;84.93
55763;BME280;42162;51.958;5.426;2024-03-23T04:16:56;100960.41;;;7.23;84.94
55763;BME280;42162;51.958;5.426;2024-03-23T04:19:22;100958.59;;;7.32;84.75
55763;BME280;42162;51.958;5.426;2024-03-23T04:21:48;100952.47;;;7.39;84.19
55763;BME280;42162;51.958;5.426;2024-03-23T04:24:15;100955.03;;;7.45;84.29
55763;BME280;42162;51.958;5.426;2024-03-23T04:26:42;100953.28;;;7.47;83.75
55763;BME280;42162;51.958;5.426;2024-03-23T04:29:08;100952.44;;;7.45;83.57
55763;BME280;42162;51.958;5.426;2024-03-23T04:31:34;100956.81;;;7.37;83.76
55763;BME280;42162;51.958;5.426;2024-03-23T04:34:01;100951.63;;;7.37;83.77
55763;BME280;42162;51.958;5.426;2024-03-23T04:36:27;100945.66;;;7.35;83.55
55763;BME280;42162;51.958;5.426;2024-03-23T04:38:53;100945.69;;;7.29;83.43
55763;BME280;42162;51.958;5.426;2024-03-23T04:41:19;100946.75;;;7.07;83.49
55763;BME280;42162;51.958;5.426;2024-03-23T04:43:45;100945.13;;;6.94;83.71
55763;BME280;42162;51.958;5.426;2024-03-23T04:46:11;100949.41;;;6.97;83.75
55763;BME280;42162;51.958;5.426;2024-03-23T04:48:37;100944.22;;;7.00;83.67
55763;BME280;42162;51.958;5.426;2024-03-23T04:51:04;100945.91;;;7.04;83.48
55763;BME280;42162;51.958;5.426;2024-03-23T04:53:30;100944.19;;;7.03;83.14
55763;BME280;42162;51.958;5.426;2024-03-23T04:55:56;100936.44;;;7.03;82.90
55763;BME280;42162;51.958;5.426;2024-03-23T04:58:23;100934.78;;;6.95;83.15
55763;BME280;42162;51.958;5.426;2024-03-23T05:00:58;100933.91;;;6.97;83.15
55763;BME280;42162;51.958;5.426;2024-03-23T05:03:23;100935.59;;;7.02;83.13
55763;BME280;42162;51.958;5.426;2024-03-23T05:05:50;100934.69;;;7.05;83.06
55763;BME280;42162;51.958;5.426;2024-03-23T05:08:16;100945.00;;;7.08;83.15
55763;BME280;42162;51.958;5.426;2024-03-23T05:10:43;100938.16;;;7.04;82.86
55763;BME280;42162;51.958;5.426;2024-03-23T05:13:09;100946.84;;;6.95;83.33
55763;BME280;42162;51.958;5.426;2024-03-23T05:15:35;100937.44;;;6.89;83.28
55763;BME280;42162;51.958;5.426;2024-03-23T05:18:01;100946.91;;;6.84;83.60
55763;BME280;42162;51.958;5.426;2024-03-23T05:20:27;100943.44;;;6.87;83.50
55763;BME280;42162;51.958;5.426;2024-03-23T05:22:54;100939.97;;;6.91;83.29
55763;BME280;42162;51.958;5.426;2024-03-23T05:25:21;100944.22;;;6.98;83.10
55763;BME280;42162;51.958;5.426;2024-03-23T05:27:47;100952.81;;;7.03;82.93
55763;BME280;42162;51.958;5.426;2024-03-23T05:30:13;100950.25;;;7.00;82.95
55763;BME280;42162;51.958;5.426;2024-03-23T05:32:38;100953.72;;;6.98;83.02
55763;BME280;42162;51.958;5.426;2024-03-23T05:35:09;100949.44;;;6.92;82.82
55763;BME280;42162;51.958;5.426;2024-03-23T05:37:35;100961.56;;;6.84;83.31
55763;BME280;42162;51.958;5.426;2024-03-23T05:40:02;100957.28;;;6.83;83.59
55763;BME280;42162;51.958;5.426;2024-03-23T05:42:29;100960.75;;;6.77;83.44
55763;BME280;42162;51.958;5.426;2024-03-23T05:44:55;100960.81;;;6.66;83.51
55763;BME280;42162;51.958;5.426;2024-03-23T05:47:21;100961.72;;;6.59;83.81
55763;BME280;42162;51.958;5.426;2024-03-23T05:49:47;100961.75;;;6.54;83.96
55763;BME280;42162;51.958;5.426;2024-03-23T05:52:13;100960.00;;;6.56;84.00
55763;BME280;42162;51.958;5.426;2024-03-23T05:54:39;100959.97;;;6.59;84.07
55763;BME280;42162;51.958;5.426;2024-03-23T05:57:05;100963.38;;;6.66;84.19
55763;BME280;42162;51.958;5.426;2024-03-23T05:59:34;100950.47;;;6.72;84.04
55763;BME280;42162;51.958;5.426;2024-03-23T06:02:00;100952.13;;;6.76;83.95
55763;BME280;42162;51.958;5.426;2024-03-23T06:04:26;100948.66;;;6.82;83.85
55763;BME280;42162;51.958;5.426;2024-03-23T06:06:52;100959.78;;;6.92;83.71
55763;BME280;42162;51.958;5.426;2024-03-23T06:09:18;100954.63;;;6.89;83.44
55763;BME280;42162;51.958;5.426;2024-03-23T06:11:45;100959.84;;;6.83;83.55
55763;BME280;42162;51.958;5.426;2024-03-23T06:14:11;100959.88;;;6.79;83.41
55763;BME280;42162;51.958;5.426;2024-03-23T06:16:37;100961.56;;;6.79;83.68
55763;BME280;42162;51.958;5.426;2024-03-23T06:19:03;100967.59;;;6.79;83.74
55763;BME280;42162;51.958;5.426;2024-03-23T06:21:32;100960.66;;;6.85;83.60
55763;BME280;42162;51.958;5.426;2024-03-23T06:23:59;100956.31;;;6.93;83.56
55763;BME280;42162;51.958;5.426;2024-03-23T06:26:25;100950.25;;;7.00;83.55
55763;BME280;42162;51.958;5.426;2024-03-23T06:28:51;100944.19;;;7.03;83.20
55763;BME280;42162;51.958;5.426;2024-03-23T06:31:17;100945.09;;;6.99;83.17
55763;BME280;42162;51.958;5.426;2024-03-23T06:33:43;100944.28;;;6.92;83.29
55763;BME280;42162;51.958;5.426;2024-03-23T06:36:10;100945.13;;;6.92;83.82
55763;BME280;42162;51.958;5.426;2024-03-23T06:38:37;100941.69;;;6.95;83.58
55763;BME280;42162;51.958;5.426;2024-03-23T06:41:07;100936.53;;;6.92;83.69
55763;BME280;42162;51.958;5.426;2024-03-23T06:43:33;100948.59;;;6.93;83.47
55763;BME280;42162;51.958;5.426;2024-03-23T06:45:59;100946.00;;;6.93;83.71
55763;BME280;42162;51.958;5.426;2024-03-23T06:48:25;100942.53;;;6.92;83.44
55763;BME280;42162;51.958;5.426;2024-03-23T06:51:00;100942.53;;;6.92;83.30
55763;BME280;42162;51.958;5.426;2024-03-23T06:53:26;100950.28;;;6.92;83.26
55763;BME280;42162;51.958;5.426;2024-03-23T06:55:53;100939.09;;;6.93;83.46
55763;BME280;42162;51.958;5.426;2024-03-23T06:58:20;100947.66;;;6.97;83.36
55763;BME280;42162;51.958;5.426;2024-03-23T07:00:46;100946.84;;;6.93;83.54
55763;BME280;42162;51.958;5.426;2024-03-23T07:03:13;100943.38;;;6.98;83.59
55763;BME280;42162;51.958;5.426;2024-03-23T07:05:39;100941.63;;;6.98;83.63
55763;BME280;42162;51.958;5.426;2024-03-23T07:08:05;100949.34;;;7.07;83.75
55763;BME280;42162;51.958;5.426;2024-03-23T07:10:31;100944.09;;;7.17;84.20
55763;BME280;42162;51.958;5.426;2024-03-23T07:12:57;100950.81;;;7.35;84.00
55763;BME280;42162;51.958;5.426;2024-03-23T07:15:23;100946.88;;;7.81;83.30
55763;BME280;42162;51.958;5.426;2024-03-23T07:17:49;100943.63;;;8.35;82.28
55763;BME280;42162;51.958;5.426;2024-03-23T07:20:15;100949.59;;;9.03;81.19
55763;BME280;42162;51.958;5.426;2024-03-23T07:22:41;100947.13;;;9.44;80.21
55763;BME280;42162;51.958;5.426;2024-03-23T07:25:07;100948.91;;;9.88;79.19
55763;BME280;42162;51.958;5.426;2024-03-23T07:27:33;100939.44;;;10.28;78.23
55763;BME280;42162;51.958;5.426;2024-03-23T07:30:00;100953.47;;;10.60;77.36
55763;BME280;42162;51.958;5.426;2024-03-23T07:32:27;100946.88;;;10.83;76.36
55763;BME280;42162;51.958;5.426;2024-03-23T07:34:53;100945.56;;;11.03;75.85
55763;BME280;42162;51.958;5.426;2024-03-23T07:37:19;100943.44;;;11.19;75.30
55763;BME280;42162;51.958;5.426;2024-03-23T07:39:45;100941.28;;;11.35;74.68
55763;BME280;42162;51.958;5.426;2024-03-23T07:42:11;100942.69;;;11.48;74.29
55763;BME280;42162;51.958;5.426;2024-03-23T07:44:37;100936.47;;;11.54;73.72
55763;BME280;42162;51.958;5.426;2024-03-23T07:47:03;100949.28;;;11.60;73.51
55763;BME280;42162;51.958;5.426;2024-03-23T07:49:29;100945.41;;;11.75;72.71
55763;BME280;42162;51.958;5.426;2024-03-23T07:51:56;100942.66;;;11.80;72.50
55763;BME280;42162;51.958;5.426;2024-03-23T07:54:22;100943.34;;;11.88;72.22
55763;BME280;42162;51.958;5.426;2024-03-23T07:56:48;100942.47;;;11.87;71.36
55763;BME280;42162;51.958;5.426;2024-03-23T07:59:13;100940.63;;;11.91;71.40
55763;BME280;42162;51.958;5.426;2024-03-23T08:01:39;100950.31;;;11.86;70.83
55763;BME280;42162;51.958;5.426;2024-03-23T08:04:05;100942.66;;;11.81;70.82
55763;BME280;42162;51.958;5.426;2024-03-23T08:06:31;100947.38;;;11.67;70.90
55763;BME280;42162;51.958;5.426;2024-03-23T08:08:58;100932.66;;;11.33;71.14
55763;BME280;42162;51.958;5.426;2024-03-23T08:11:31;100946.25;;;11.44;71.14
55763;BME280;42162;51.958;5.426;2024-03-23T08:13:57;100938.81;;;11.30;70.70
55763;BME280;42162;51.958;5.426;2024-03-23T08:16:24;100933.94;;;11.16;70.67
55763;BME280;42162;51.958;5.426;2024-03-23T08:18:54;100930.75;;;11.06;70.44
55763;BME280;42162;51.958;5.426;2024-03-23T08:21:21;100931.38;;;10.80;70.25
55763;BME280;42162;51.958;5.426;2024-03-23T08:23:47;100930.09;;;10.98;70.12
55763;BME280;42162;51.958;5.426;2024-03-23T08:26:15;100929.88;;;11.06;69.92
55763;BME280;42162;51.958;5.426;2024-03-23T08:28:42;100931.16;;;11.57;69.38
55763;BME280;42162;51.958;5.426;2024-03-23T08:31:09;100930.44;;;11.83;68.30
55763;BME280;42162;51.958;5.426;2024-03-23T08:33:36;100925.66;;;12.29;67.81
55763;BME280;42162;51.958;5.426;2024-03-23T08:36:07;100937.66;;;12.90;66.27
55763;BME280;42162;51.958;5.426;2024-03-23T08:38:34;100931.69;;;13.40;64.64
55763;BME280;42162;51.958;5.426;2024-03-23T08:43:26;100933.88;;;14.00;62.21
55763;BME280;42162;51.958;5.426;2024-03-23T08:45:53;100939.13;;;13.51;62.09
55763;BME280;42162;51.958;5.426;2024-03-23T08:48:19;100947.19;;;12.91;63.71
55763;BME280;42162;51.958;5.426;2024-03-23T08:51:18;100944.25;;;11.85;64.73
55763;BME280;42162;51.958;5.426;2024-03-23T08:53:45;100945.69;;;10.98;67.02
55763;BME280;42162;51.958;5.426;2024-03-23T08:56:11;100951.47;;;10.73;68.58
55763;BME280;42162;51.958;5.426;2024-03-23T08:58:38;100949.59;;;10.78;68.99
55763;BME280;42162;51.958;5.426;2024-03-23T09:03:30;100935.72;;;10.42;69.41
55763;BME280;42162;51.958;5.426;2024-03-23T09:05:57;100926.63;;;10.21;70.07
55763;BME280;42162;51.958;5.426;2024-03-23T09:08:24;100940.19;;;10.33;70.33
55763;BME280;42162;51.958;5.426;2024-03-23T09:10:51;100931.97;;;10.54;70.40
55763;BME280;42162;51.958;5.426;2024-03-23T09:13:17;100921.16;;;11.75;68.98
55763;BME280;42162;51.958;5.426;2024-03-23T09:15:50;100921.25;;;13.40;66.32
55763;BME280;42162;51.958;5.426;2024-03-23T09:18:16;100909.41;;;14.92;62.44
55763;BME280;42162;51.958;5.426;2024-03-23T09:20:42;100903.00;;;15.80;59.23
55763;BME280;42162;51.958;5.426;2024-03-23T09:23:08;100907.06;;;16.26;57.89
55763;BME280;42162;51.958;5.426;2024-03-23T09:25:41;100909.00;;;16.95;57.05
55763;BME280;42162;51.958;5.426;2024-03-23T09:28:07;100915.25;;;17.78;56.18
55763;BME280;42162;51.958;5.426;2024-03-23T09:30:36;100914.44;;;18.41;54.66
55763;BME280;42162;51.958;5.426;2024-03-23T09:33:12;100906.91;;;18.35;52.94
55763;BME280;42162;51.958;5.426;2024-03-23T09:35:42;100913.84;;;18.52;52.28
55763;BME280;42162;51.958;5.426;2024-03-23T09:38:08;100898.91;;;18.99;51.51
55763;BME280;42162;51.958;5.426;2024-03-23T09:40:40;100902.44;;;19.29;50.19
55763;BME280;42162;51.958;5.426;2024-03-23T09:43:07;100902.53;;;19.41;50.90
55763;BME280;42162;51.958;5.426;2024-03-23T09:45:38;100900.19;;;19.51;49.41
55763;BME280;42162;51.958;5.426;2024-03-23T09:48:05;100893.22;;;19.50;49.93
55763;BME280;42162;51.958;5.426;2024-03-23T09:50:32;100893.97;;;19.52;48.47
55763;BME280;42162;51.958;5.426;2024-03-23T09:52:58;100903.25;;;19.29;48.76
55763;BME280;42162;51.958;5.426;2024-03-23T09:55:24;100892.44;;;19.05;49.25
55763;BME280;42162;51.958;5.426;2024-03-23T09:57:50;100898.22;;;17.85;49.69
55763;BME280;42162;51.958;5.426;2024-03-23T10:00:16;100907.41;;;16.37;51.62
55763;BME280;42162;51.958;5.426;2024-03-23T10:02:42;100918.41;;;15.07;53.17
55763;BME280;42162;51.958;5.426;2024-03-23T10:05:22;100912.81;;;14.05;54.03
55763;BME280;42162;51.958;5.426;2024-03-23T10:07:52;100906.97;;;13.51;57.04
55763;BME280;42162;51.958;5.426;2024-03-23T10:10:18;100914.59;;;13.30;57.47
55763;BME280;42162;51.958;5.426;2024-03-23T10:12:49;100901.41;;;13.09;58.36
55763;BME280;42162;51.958;5.426;2024-03-23T10:15:23;100910.28;;;13.04;58.61
55763;BME280;42162;51.958;5.426;2024-03-23T10:17:50;100901.06;;;12.93;59.15
55763;BME280;42162;51.958;5.426;2024-03-23T10:20:21;100894.44;;;12.83;59.25
55763;BME280;42162;51.958;5.426;2024-03-23T10:22:51;100901.72;;;12.73;58.84
55763;BME280;42162;51.958;5.426;2024-03-23T10:25:18;100905.94;;;12.49;59.27
55763;BME280;42162;51.958;5.426;2024-03-23T10:28:08;100897.69;;;12.36;58.98
55763;BME280;42162;51.958;5.426;2024-03-23T10:30:35;100900.94;;;12.14;59.02
55763;BME280;42162;51.958;5.426;2024-03-23T10:33:10;100896.56;;;11.85;59.17
55763;BME280;42162;51.958;5.426;2024-03-23T10:35:37;100900.63;;;11.64;58.87
55763;BME280;42162;51.958;5.426;2024-03-23T10:38:07;100894.97;;;11.49;58.70
55763;BME280;42162;51.958;5.426;2024-03-23T10:40:37;100895.56;;;11.26;59.35
55763;BME280;42162;51.958;5.426;2024-03-23T10:43:03;100901.09;;;11.14;59.65
55763;BME280;42162;51.958;5.426;2024-03-23T10:45:30;100911.53;;;11.12;60.38
55763;BME280;42162;51.958;5.426;2024-03-23T10:47:56;100896.72;;;11.16;60.88
55763;BME280;42162;51.958;5.426;2024-03-23T10:50:23;100902.88;;;11.11;61.03
55763;BME280;42162;51.958;5.426;2024-03-23T10:52:49;100897.44;;;11.21;61.48
55763;BME280;42162;51.958;5.426;2024-03-23T10:55:19;100899.75;;;11.32;61.80
55763;BME280;42162;51.958;5.426;2024-03-23T10:57:52;100888.97;;;11.46;61.34
55763;BME280;42162;51.958;5.426;2024-03-23T11:00:19;100886.28;;;11.50;61.41
55763;BME280;42162;51.958;5.426;2024-03-23T11:02:48;100890.25;;;11.62;61.09
55763;BME280;42162;51.958;5.426;2024-03-23T11:05:34;100892.66;;;11.70;60.43
55763;BME280;42162;51.958;5.426;2024-03-23T11:08:00;100889.38;;;11.63;59.92
55763;BME280;42162;51.958;5.426;2024-03-23T11:10:29;100890.78;;;11.44;60.00
55763;BME280;42162;51.958;5.426;2024-03-23T11:13:21;100890.69;;;11.14;59.56
55763;BME280;42162;51.958;5.426;2024-03-23T11:15:47;100899.66;;;11.02;60.22
55763;BME280;42162;51.958;5.426;2024-03-23T11:18:20;100892.13;;;10.91;59.94
55763;BME280;42162;51.958;5.426;2024-03-23T11:20:47;100891.31;;;10.89;60.80
55763;BME280;42162;51.958;5.426;2024-03-23T11:23:28;100892.31;;;10.83;60.70
55763;BME280;42162;51.958;5.426;2024-03-23T11:25:54;100894.91;;;10.83;60.97
55763;BME280;42162;51.958;5.426;2024-03-23T11:28:20;100897.75;;;10.74;60.58
55763;BME280;42162;51.958;5.426;2024-03-23T11:30:47;100897.97;;;10.64;60.65
55763;BME280;42162;51.958;5.426;2024-03-23T11:33:13;100891.19;;;10.59;61.09
55763;BME280;42162;51.958;5.426;2024-03-23T11:35:40;100895.53;;;10.58;61.73
55763;BME280;42162;51.958;5.426;2024-03-23T11:40:33;100885.75;;;10.68;61.19
55763;BME280;42162;51.958;5.426;2024-03-23T11:43:03;100882.34;;;10.66;61.10
55763;BME280;42162;51.958;5.426;2024-03-23T11:45:43;100884.31;;;10.56;60.95
55763;BME280;42162;51.958;5.426;2024-03-23T11:50:40;100879.19;;;10.53;61.76
55763;BME280;42162;51.958;5.426;2024-03-23T11:53:20;100867.81;;;10.59;62.19
55763;BME280;42162;51.958;5.426;2024-03-23T11:55:48;100875.53;;;10.62;60.53
55763;BME280;42162;51.958;5.426;2024-03-23T11:58:19;100881.00;;;10.49;59.68
55763;BME280;42162;51.958;5.426;2024-03-23T12:03:19;100880.72;;;10.23;59.88
55763;BME280;42162;51.958;5.426;2024-03-23T12:05:52;100874.94;;;10.10;60.45
55763;BME280;42162;51.958;5.426;2024-03-23T12:08:32;100869.72;;;10.11;60.51
55763;BME280;42162;51.958;5.426;2024-03-23T12:13:36;100874.47;;;10.30;59.69
55763;BME280;42162;51.958;5.426;2024-03-23T12:16:13;100860.59;;;10.32;59.27
55763;BME280;42162;51.958;5.426;2024-03-23T12:18:44;100844.91;;;10.37;59.67
55763;BME280;42162;51.958;5.426;2024-03-23T12:21:11;100849.03;;;10.47;59.63
55763;BME280;42162;51.958;5.426;2024-03-23T12:23:40;100853.34;;;10.48;59.22
55763;BME280;42162;51.958;5.426;2024-03-23T12:26:07;100855.16;;;10.45;58.88
55763;BME280;42162;51.958;5.426;2024-03-23T12:28:33;100846.59;;;10.40;59.31
55763;BME280;42162;51.958;5.426;2024-03-23T12:30:59;100850.09;;;10.39;58.92
55763;BME280;42162;51.958;5.426;2024-03-23T12:33:25;100842.31;;;10.35;59.21
55763;BME280;42162;51.958;5.426;2024-03-23T12:35:52;100842.53;;;10.28;58.85
55763;BME280;42162;51.958;5.426;2024-03-23T12:38:19;100833.22;;;10.19;59.59
55763;BME280;42162;51.958;5.426;2024-03-23T12:40:49;100840.72;;;10.30;60.27
55763;BME280;42162;51.958;5.426;2024-03-23T12:43:16;100830.13;;;10.41;59.77
55763;BME280;42162;51.958;5.426;2024-03-23T12:45:49;100831.91;;;10.39;58.95
55763;BME280;42162;51.958;5.426;2024-03-23T12:48:16;100835.47;;;10.34;59.31
55763;BME280;42162;51.958;5.426;2024-03-23T12:50:42;100840.72;;;10.30;59.14
55763;BME280;42162;51.958;5.426;2024-03-23T12:53:08;100830.28;;;10.33;59.89
55763;BME280;42162;51.958;5.426;2024-03-23T12:55:35;100841.38;;;10.41;60.24
55763;BME280;42162;51.958;5.426;2024-03-23T12:58:01;100834.91;;;10.58;60.34
55763;BME280;42162;51.958;5.426;2024-03-23T13:00:27;100835.38;;;10.74;60.24
55763;BME280;42162;51.958;5.426;2024-03-23T13:02:53;100839.47;;;10.84;60.33
55763;BME280;42162;51.958;5.426;2024-03-23T13:05:19;100832.47;;;10.86;59.84
55763;BME280;42162;51.958;5.426;2024-03-23T13:07:45;100835.16;;;10.83;59.76
55763;BME280;42162;51.958;5.426;2024-03-23T13:10:11;100838.50;;;10.88;59.72
55763;BME280;42162;51.958;5.426;2024-03-23T13:12:37;100840.84;;;10.98;59.96
55763;BME280;42162;51.958;5.426;2024-03-23T13:15:04;100826.78;;;11.05;59.71
55763;BME280;42162;51.958;5.426;2024-03-23T13:17:31;100824.13;;;11.08;59.92
55763;BME280;42162;51.958;5.426;2024-03-23T13:19:57;100830.94;;;11.12;59.58
55763;BME280;42162;51.958;5.426;2024-03-23T13:22:23;100826.63;;;11.11;59.07
55763;BME280;42162;51.958;5.426;2024-03-23T13:24:50;100814.59;;;11.08;58.92
55763;BME280;42162;51.958;5.426;2024-03-23T13:27:16;100814.16;;;10.92;58.29
55763;BME280;42162;51.958;5.426;2024-03-23T13:29:42;100811.94;;;10.77;58.38
55763;BME280;42162;51.958;5.426;2024-03-23T13:32:08;100824.34;;;10.65;58.81
55763;BME280;42162;51.958;5.426;2024-03-23T13:34:34;100831.50;;;10.56;58.65
55763;BME280;42162;51.958;5.426;2024-03-23T13:37:01;100846.50;;;10.44;59.54
55763;BME280;42162;51.958;5.426;2024-03-23T13:39:27;100840.66;;;10.34;60.61
55763;BME280;42162;51.958;5.426;2024-03-23T13:41:53;100844.53;;;10.15;61.43
55763;BME280;42162;51.958;5.426;2024-03-23T13:44:23;100846.63;;;10.00;62.17
55763;BME280;42162;51.958;5.426;2024-03-23T13:46:49;100836.31;;;9.96;63.02
55763;BME280;42162;51.958;5.426;2024-03-23T13:49:29;100835.50;;;9.94;63.05
55763;BME280;42162;51.958;5.426;2024-03-23T13:51:56;100837.28;;;9.92;62.92
55763;BME280;42162;51.958;5.426;2024-03-23T13:54:26;100838.28;;;9.84;63.33
55763;BME280;42162;51.958;5.426;2024-03-23T13:56:53;100837.44;;;9.84;63.83
55763;BME280;42162;51.958;5.426;2024-03-23T13:59:20;100844.38;;;9.83;63.45
55763;BME280;42162;51.958;5.426;2024-03-23T14:01:47;100843.75;;;9.72;63.08
55763;BME280;42162;51.958;5.426;2024-03-23T14:04:13;100852.69;;;9.57;63.85